ルアンダ の空港の天気 - METARとTAF

ルアンダ国際空港 ( FNLU / LAD ) - アンゴラ ルアンダ
飛行場実況気象(Metar)
観測時間04/21 17:00 WAT (04/21 16:00 UTC)
風向・風速西南西 3m/s
視程10km以上
天気現象
少しの雲 雲底高度 700m
気温29℃
湿度74%
気圧1007hPa
METARFNLU 211600Z 25006KT 9999 FEW023 29/24 Q1007 NOSIG
過去の天気等 Google飛行場航空写真 Wunderground天気予報

過去48時間のMETAR

飛行場予報(TAF)
発表時間: 4/21 11:45 WAT (4/21 10:45 UTC)
予報対象時間: 21日13時 WAT ~ 22日19時 WAT
風向・風速南 2m/s
視程10km以上
全天の8割程度の雲 雲底高度 670m
少しの積乱雲 雲底高度 730m
21日15時 WAT ~ 21日19時 WAT に一時的に
風向・風速西 3m/s
全天の4割程度の雲 雲底高度 490m
少しの積乱雲 雲底高度 610m
全天の8割程度の雲 雲底高度 760m
21日21時 WAT ~ 21日23時 WAT に徐々に
風向・風速南 3m/s
視程9000m
全天の4割程度の雲 雲底高度 550m
全天の8割程度の雲 雲底高度 760m
22日0時 WAT ~ 22日5時 WAT に一時的に
風向・風速不定 2m/s
視程8000m
少しの雲 雲底高度 610m
全天の8割程度の雲 雲底高度 910m
TAF FNLU 211045Z 2112/2218 17004KT 9999 BKN022 FEW024CB
TEMPO 2114/2118 27005KT SCT016 FEW020CB BKN025
BECMG 2120/2122 19006KT 9000 SCT018 BKN025
TEMPO 2123/2204 VRB03KT 8000 FEW020 BKN030